sensor_id;sensor_type;location;lat;lon;timestamp;P1;durP1;ratioP1;P2;durP2;ratioP2
795;SDS011;381;48.770;9.188;2022-08-01T00:02:26;4.37;;;4.17;;
795;SDS011;381;48.770;9.188;2022-08-01T00:07:29;4.90;;;4.60;;
795;SDS011;381;48.770;9.188;2022-08-01T00:12:32;4.60;;;4.40;;
795;SDS011;381;48.770;9.188;2022-08-01T00:17:34;4.70;;;4.50;;
795;SDS011;381;48.770;9.188;2022-08-01T00:22:37;4.70;;;4.50;;
795;SDS011;381;48.770;9.188;2022-08-01T00:27:41;5.60;;;4.37;;
795;SDS011;381;48.770;9.188;2022-08-01T00:32:43;4.67;;;4.37;;
795;SDS011;381;48.770;9.188;2022-08-01T00:37:45;5.13;;;4.73;;
795;SDS011;381;48.770;9.188;2022-08-01T00:42:48;4.50;;;4.20;;
795;SDS011;381;48.770;9.188;2022-08-01T00:47:50;4.83;;;4.53;;
795;SDS011;381;48.770;9.188;2022-08-01T00:52:53;4.77;;;4.57;;
795;SDS011;381;48.770;9.188;2022-08-01T00:57:57;4.63;;;4.43;;
795;SDS011;381;48.770;9.188;2022-08-01T01:02:59;4.63;;;4.33;;
795;SDS011;381;48.770;9.188;2022-08-01T01:08:02;5.20;;;4.90;;
795;SDS011;381;48.770;9.188;2022-08-01T01:13:10;4.80;;;4.60;;
795;SDS011;381;48.770;9.188;2022-08-01T01:18:17;5.10;;;4.80;;
795;SDS011;381;48.770;9.188;2022-08-01T01:23:30;4.50;;;4.30;;
795;SDS011;381;48.770;9.188;2022-08-01T01:29:02;5.10;;;4.80;;
795;SDS011;381;48.770;9.188;2022-08-01T01:34:06;5.37;;;5.07;;
795;SDS011;381;48.770;9.188;2022-08-01T01:39:11;4.73;;;4.53;;
795;SDS011;381;48.770;9.188;2022-08-01T01:44:15;5.20;;;4.90;;
795;SDS011;381;48.770;9.188;2022-08-01T01:49:19;5.30;;;5.00;;
795;SDS011;381;48.770;9.188;2022-08-01T01:54:28;5.00;;;4.80;;
795;SDS011;381;48.770;9.188;2022-08-01T01:59:34;5.00;;;4.70;;
795;SDS011;381;48.770;9.188;2022-08-01T02:04:40;4.90;;;4.60;;
795;SDS011;381;48.770;9.188;2022-08-01T02:09:44;5.30;;;5.10;;
795;SDS011;381;48.770;9.188;2022-08-01T02:14:50;4.97;;;4.77;;
795;SDS011;381;48.770;9.188;2022-08-01T02:19:54;5.50;;;5.20;;
795;SDS011;381;48.770;9.188;2022-08-01T02:24:58;5.37;;;5.07;;
795;SDS011;381;48.770;9.188;2022-08-01T02:30:06;5.53;;;5.17;;
795;SDS011;381;48.770;9.188;2022-08-01T02:35:11;5.30;;;4.90;;
795;SDS011;381;48.770;9.188;2022-08-01T02:40:15;4.43;;;4.23;;
795;SDS011;381;48.770;9.188;2022-08-01T02:45:20;5.30;;;5.10;;
795;SDS011;381;48.770;9.188;2022-08-01T02:50:26;5.80;;;5.40;;
795;SDS011;381;48.770;9.188;2022-08-01T02:55:31;5.30;;;4.90;;
795;SDS011;381;48.770;9.188;2022-08-01T03:00:36;5.37;;;5.07;;
795;SDS011;381;48.770;9.188;2022-08-01T03:05:40;5.57;;;5.27;;
795;SDS011;381;48.770;9.188;2022-08-01T03:10:44;6.23;;;5.93;;
795;SDS011;381;48.770;9.188;2022-08-01T03:15:49;5.80;;;5.30;;
795;SDS011;381;48.770;9.188;2022-08-01T03:20:54;5.60;;;5.20;;
795;SDS011;381;48.770;9.188;2022-08-01T03:25:57;4.63;;;4.33;;
795;SDS011;381;48.770;9.188;2022-08-01T03:31:03;6.30;;;5.90;;
795;SDS011;381;48.770;9.188;2022-08-01T03:36:05;6.30;;;5.80;;
795;SDS011;381;48.770;9.188;2022-08-01T03:41:11;5.73;;;5.43;;
795;SDS011;381;48.770;9.188;2022-08-01T03:46:19;6.23;;;5.93;;
795;SDS011;381;48.770;9.188;2022-08-01T03:51:28;5.67;;;5.37;;
795;SDS011;381;48.770;9.188;2022-08-01T03:56:31;5.33;;;5.07;;
795;SDS011;381;48.770;9.188;2022-08-01T04:01:35;6.00;;;5.70;;
795;SDS011;381;48.770;9.188;2022-08-01T04:06:38;6.83;;;6.43;;
795;SDS011;381;48.770;9.188;2022-08-01T04:11:41;5.67;;;5.37;;
795;SDS011;381;48.770;9.188;2022-08-01T04:16:45;5.50;;;5.13;;
795;SDS011;381;48.770;9.188;2022-08-01T04:21:47;6.27;;;5.77;;
795;SDS011;381;48.770;9.188;2022-08-01T04:26:49;6.03;;;5.70;;
795;SDS011;381;48.770;9.188;2022-08-01T04:31:54;5.30;;;5.00;;
795;SDS011;381;48.770;9.188;2022-08-01T04:36:58;6.27;;;5.87;;
795;SDS011;381;48.770;9.188;2022-08-01T04:42:02;5.53;;;5.23;;
795;SDS011;381;48.770;9.188;2022-08-01T04:47:07;5.60;;;5.20;;
795;SDS011;381;48.770;9.188;2022-08-01T04:52:11;5.83;;;5.53;;
795;SDS011;381;48.770;9.188;2022-08-01T04:57:13;5.40;;;5.10;;
795;SDS011;381;48.770;9.188;2022-08-01T05:02:17;5.27;;;4.77;;
795;SDS011;381;48.770;9.188;2022-08-01T05:07:20;6.50;;;5.90;;
795;SDS011;381;48.770;9.188;2022-08-01T05:12:22;5.43;;;5.00;;
795;SDS011;381;48.770;9.188;2022-08-01T05:17:25;5.67;;;5.33;;
795;SDS011;381;48.770;9.188;2022-08-01T05:22:27;5.10;;;4.90;;
795;SDS011;381;48.770;9.188;2022-08-01T05:27:30;5.93;;;5.63;;
795;SDS011;381;48.770;9.188;2022-08-01T05:32:33;5.27;;;4.80;;
795;SDS011;381;48.770;9.188;2022-08-01T05:37:35;4.50;;;4.30;;
795;SDS011;381;48.770;9.188;2022-08-01T05:42:37;4.63;;;4.33;;
795;SDS011;381;48.770;9.188;2022-08-01T05:47:41;5.10;;;4.90;;
795;SDS011;381;48.770;9.188;2022-08-01T05:52:43;5.80;;;5.40;;
795;SDS011;381;48.770;9.188;2022-08-01T05:57:45;4.80;;;4.50;;
795;SDS011;381;48.770;9.188;2022-08-01T06:02:48;5.10;;;4.80;;
795;SDS011;381;48.770;9.188;2022-08-01T06:07:50;5.37;;;5.10;;
795;SDS011;381;48.770;9.188;2022-08-01T06:12:54;4.67;;;4.47;;
795;SDS011;381;48.770;9.188;2022-08-01T06:17:57;4.30;;;4.00;;
795;SDS011;381;48.770;9.188;2022-08-01T06:22:59;5.57;;;5.13;;
795;SDS011;381;48.770;9.188;2022-08-01T06:28:02;4.27;;;4.07;;
795;SDS011;381;48.770;9.188;2022-08-01T06:33:05;5.20;;;4.80;;
795;SDS011;381;48.770;9.188;2022-08-01T06:38:08;5.00;;;4.70;;
795;SDS011;381;48.770;9.188;2022-08-01T06:43:11;4.67;;;4.47;;
795;SDS011;381;48.770;9.188;2022-08-01T06:48:14;3.90;;;3.70;;
795;SDS011;381;48.770;9.188;2022-08-01T06:53:16;6.00;;;4.20;;
795;SDS011;381;48.770;9.188;2022-08-01T06:58:18;4.47;;;4.27;;
795;SDS011;381;48.770;9.188;2022-08-01T07:03:22;4.07;;;3.87;;
795;SDS011;381;48.770;9.188;2022-08-01T07:08:24;4.97;;;4.70;;
795;SDS011;381;48.770;9.188;2022-08-01T07:13:26;4.50;;;4.30;;
795;SDS011;381;48.770;9.188;2022-08-01T07:18:32;4.83;;;4.63;;
795;SDS011;381;48.770;9.188;2022-08-01T07:23:34;5.20;;;5.00;;
795;SDS011;381;48.770;9.188;2022-08-01T07:28:36;5.10;;;4.90;;
795;SDS011;381;48.770;9.188;2022-08-01T07:33:40;5.13;;;4.93;;
795;SDS011;381;48.770;9.188;2022-08-01T07:38:42;5.50;;;4.80;;
795;SDS011;381;48.770;9.188;2022-08-01T07:43:44;5.43;;;5.00;;
795;SDS011;381;48.770;9.188;2022-08-01T07:48:49;4.70;;;4.50;;
795;SDS011;381;48.770;9.188;2022-08-01T07:53:51;4.70;;;4.43;;
795;SDS011;381;48.770;9.188;2022-08-01T07:58:53;5.37;;;5.17;;
795;SDS011;381;48.770;9.188;2022-08-01T08:03:56;5.80;;;5.40;;
795;SDS011;381;48.770;9.188;2022-08-01T08:08:58;5.57;;;5.17;;
795;SDS011;381;48.770;9.188;2022-08-01T08:14:00;5.77;;;5.47;;
795;SDS011;381;48.770;9.188;2022-08-01T08:19:04;5.63;;;5.33;;
795;SDS011;381;48.770;9.188;2022-08-01T08:24:06;5.50;;;5.30;;
795;SDS011;381;48.770;9.188;2022-08-01T08:29:22;5.80;;;5.50;;
795;SDS011;381;48.770;9.188;2022-08-01T08:34:27;5.50;;;5.27;;
795;SDS011;381;48.770;9.188;2022-08-01T08:39:29;4.47;;;4.20;;
795;SDS011;381;48.770;9.188;2022-08-01T08:44:32;6.37;;;5.73;;
795;SDS011;381;48.770;9.188;2022-08-01T08:49:35;6.27;;;5.87;;
795;SDS011;381;48.770;9.188;2022-08-01T08:54:38;5.30;;;4.90;;
795;SDS011;381;48.770;9.188;2022-08-01T08:59:43;4.83;;;4.53;;
795;SDS011;381;48.770;9.188;2022-08-01T09:04:48;5.87;;;5.47;;
795;SDS011;381;48.770;9.188;2022-08-01T09:09:50;6.20;;;5.90;;
795;SDS011;381;48.770;9.188;2022-08-01T09:14:52;5.30;;;5.00;;
795;SDS011;381;48.770;9.188;2022-08-01T09:19:56;7.50;;;7.07;;
795;SDS011;381;48.770;9.188;2022-08-01T09:24:59;7.97;;;7.23;;
795;SDS011;381;48.770;9.188;2022-08-01T09:30:10;8.37;;;7.77;;
795;SDS011;381;48.770;9.188;2022-08-01T09:35:25;9.03;;;8.20;;
795;SDS011;381;48.770;9.188;2022-08-01T09:40:43;10.37;;;9.57;;
795;SDS011;381;48.770;9.188;2022-08-01T09:45:46;9.47;;;8.87;;
795;SDS011;381;48.770;9.188;2022-08-01T09:50:51;7.40;;;6.90;;
795;SDS011;381;48.770;9.188;2022-08-01T09:55:53;8.57;;;7.97;;
795;SDS011;381;48.770;9.188;2022-08-01T10:00:59;8.10;;;7.50;;
795;SDS011;381;48.770;9.188;2022-08-01T10:06:12;8.10;;;7.60;;
795;SDS011;381;48.770;9.188;2022-08-01T10:11:20;7.17;;;6.77;;
795;SDS011;381;48.770;9.188;2022-08-01T10:16:24;7.80;;;7.30;;
795;SDS011;381;48.770;9.188;2022-08-01T10:21:29;8.30;;;7.70;;
795;SDS011;381;48.770;9.188;2022-08-01T10:26:33;7.70;;;7.30;;
795;SDS011;381;48.770;9.188;2022-08-01T10:31:37;9.07;;;8.23;;
795;SDS011;381;48.770;9.188;2022-08-01T10:36:40;7.70;;;7.20;;
795;SDS011;381;48.770;9.188;2022-08-01T10:41:43;6.80;;;6.30;;
795;SDS011;381;48.770;9.188;2022-08-01T10:46:46;6.13;;;5.73;;
795;SDS011;381;48.770;9.188;2022-08-01T10:51:53;6.27;;;5.87;;
795;SDS011;381;48.770;9.188;2022-08-01T10:56:56;5.80;;;5.50;;
795;SDS011;381;48.770;9.188;2022-08-01T11:02:02;5.97;;;5.67;;
795;SDS011;381;48.770;9.188;2022-08-01T11:07:07;7.50;;;7.10;;
795;SDS011;381;48.770;9.188;2022-08-01T11:12:13;7.03;;;6.70;;
795;SDS011;381;48.770;9.188;2022-08-01T11:17:30;6.87;;;6.47;;
795;SDS011;381;48.770;9.188;2022-08-01T11:22:40;6.10;;;5.80;;
795;SDS011;381;48.770;9.188;2022-08-01T11:28:18;6.57;;;6.20;;
795;SDS011;381;48.770;9.188;2022-08-01T11:44:23;6.23;;;5.83;;
795;SDS011;381;48.770;9.188;2022-08-01T11:49:30;5.70;;;5.40;;
795;SDS011;381;48.770;9.188;2022-08-01T11:54:37;6.80;;;6.40;;
795;SDS011;381;48.770;9.188;2022-08-01T11:59:41;6.37;;;6.07;;
795;SDS011;381;48.770;9.188;2022-08-01T12:04:47;5.80;;;5.50;;
795;SDS011;381;48.770;9.188;2022-08-01T12:09:57;6.83;;;6.23;;
795;SDS011;381;48.770;9.188;2022-08-01T12:15:02;6.20;;;5.90;;
795;SDS011;381;48.770;9.188;2022-08-01T12:20:07;6.60;;;6.20;;
795;SDS011;381;48.770;9.188;2022-08-01T12:25:13;5.60;;;5.30;;
795;SDS011;381;48.770;9.188;2022-08-01T12:30:16;5.93;;;5.63;;
795;SDS011;381;48.770;9.188;2022-08-01T12:35:20;5.93;;;5.60;;
795;SDS011;381;48.770;9.188;2022-08-01T12:40:25;6.50;;;5.90;;
795;SDS011;381;48.770;9.188;2022-08-01T12:45:29;5.40;;;5.10;;
795;SDS011;381;48.770;9.188;2022-08-01T12:50:35;6.00;;;5.70;;
795;SDS011;381;48.770;9.188;2022-08-01T12:55:45;6.00;;;5.60;;
795;SDS011;381;48.770;9.188;2022-08-01T13:00:49;6.00;;;5.70;;
795;SDS011;381;48.770;9.188;2022-08-01T13:06:09;6.30;;;6.00;;
795;SDS011;381;48.770;9.188;2022-08-01T13:11:14;5.80;;;5.40;;
795;SDS011;381;48.770;9.188;2022-08-01T13:16:20;5.90;;;5.63;;
795;SDS011;381;48.770;9.188;2022-08-01T13:21:24;6.13;;;5.83;;
795;SDS011;381;48.770;9.188;2022-08-01T13:26:42;5.77;;;5.37;;
795;SDS011;381;48.770;9.188;2022-08-01T13:31:46;6.03;;;5.63;;
795;SDS011;381;48.770;9.188;2022-08-01T13:36:48;5.17;;;4.87;;
795;SDS011;381;48.770;9.188;2022-08-01T13:41:52;6.10;;;5.80;;
795;SDS011;381;48.770;9.188;2022-08-01T13:46:54;6.00;;;5.70;;
795;SDS011;381;48.770;9.188;2022-08-01T13:51:57;3.87;;;3.57;;
795;SDS011;381;48.770;9.188;2022-08-01T13:57:01;6.20;;;5.90;;
795;SDS011;381;48.770;9.188;2022-08-01T14:02:03;5.43;;;5.03;;
795;SDS011;381;48.770;9.188;2022-08-01T14:07:05;4.90;;;4.20;;
795;SDS011;381;48.770;9.188;2022-08-01T14:12:08;5.47;;;5.27;;
795;SDS011;381;48.770;9.188;2022-08-01T14:17:11;5.03;;;4.73;;
795;SDS011;381;48.770;9.188;2022-08-01T14:22:13;5.70;;;5.40;;
795;SDS011;381;48.770;9.188;2022-08-01T14:27:16;5.70;;;5.40;;
795;SDS011;381;48.770;9.188;2022-08-01T14:32:18;4.30;;;4.10;;
795;SDS011;381;48.770;9.188;2022-08-01T14:37:20;3.70;;;3.50;;
795;SDS011;381;48.770;9.188;2022-08-01T14:42:25;4.10;;;3.90;;
795;SDS011;381;48.770;9.188;2022-08-01T14:47:27;5.77;;;5.37;;
795;SDS011;381;48.770;9.188;2022-08-01T14:52:29;4.07;;;3.87;;
795;SDS011;381;48.770;9.188;2022-08-01T14:57:33;7.33;;;5.43;;
795;SDS011;381;48.770;9.188;2022-08-01T15:02:36;5.80;;;5.50;;
795;SDS011;381;48.770;9.188;2022-08-01T15:07:38;6.50;;;6.00;;
795;SDS011;381;48.770;9.188;2022-08-01T15:12:42;4.97;;;4.67;;
795;SDS011;381;48.770;9.188;2022-08-01T15:17:44;5.10;;;4.80;;
795;SDS011;381;48.770;9.188;2022-08-01T15:22:46;5.17;;;4.83;;
795;SDS011;381;48.770;9.188;2022-08-01T15:27:50;4.30;;;4.10;;
795;SDS011;381;48.770;9.188;2022-08-01T15:32:52;5.80;;;5.40;;
795;SDS011;381;48.770;9.188;2022-08-01T15:37:54;5.10;;;4.90;;
795;SDS011;381;48.770;9.188;2022-08-01T15:42:58;5.43;;;5.03;;
795;SDS011;381;48.770;9.188;2022-08-01T15:48:00;7.10;;;5.10;;
795;SDS011;381;48.770;9.188;2022-08-01T15:53:02;4.50;;;4.30;;
795;SDS011;381;48.770;9.188;2022-08-01T15:58:05;4.80;;;4.60;;
795;SDS011;381;48.770;9.188;2022-08-01T16:03:08;3.97;;;3.77;;
795;SDS011;381;48.770;9.188;2022-08-01T16:08:10;4.17;;;3.87;;
795;SDS011;381;48.770;9.188;2022-08-01T16:13:15;3.97;;;3.67;;
795;SDS011;381;48.770;9.188;2022-08-01T16:18:17;3.93;;;3.63;;
795;SDS011;381;48.770;9.188;2022-08-01T16:23:19;5.20;;;4.90;;
795;SDS011;381;48.770;9.188;2022-08-01T16:28:23;4.53;;;4.33;;
795;SDS011;381;48.770;9.188;2022-08-01T16:33:25;4.47;;;4.17;;
795;SDS011;381;48.770;9.188;2022-08-01T16:38:28;4.17;;;3.97;;
795;SDS011;381;48.770;9.188;2022-08-01T16:43:31;4.47;;;4.27;;
795;SDS011;381;48.770;9.188;2022-08-01T16:48:33;5.10;;;4.80;;
795;SDS011;381;48.770;9.188;2022-08-01T16:53:36;4.97;;;4.60;;
795;SDS011;381;48.770;9.188;2022-08-01T16:58:39;4.33;;;4.13;;
795;SDS011;381;48.770;9.188;2022-08-01T17:03:41;4.47;;;4.20;;
795;SDS011;381;48.770;9.188;2022-08-01T17:08:43;4.60;;;4.20;;
795;SDS011;381;48.770;9.188;2022-08-01T17:13:47;3.60;;;3.50;;
795;SDS011;381;48.770;9.188;2022-08-01T17:18:49;3.10;;;3.00;;
795;SDS011;381;48.770;9.188;2022-08-01T17:23:52;4.50;;;4.30;;
795;SDS011;381;48.770;9.188;2022-08-01T17:28:55;4.73;;;4.43;;
795;SDS011;381;48.770;9.188;2022-08-01T17:33:58;3.80;;;3.60;;
795;SDS011;381;48.770;9.188;2022-08-01T17:39:00;3.87;;;3.70;;
795;SDS011;381;48.770;9.188;2022-08-01T17:44:04;4.47;;;4.27;;
795;SDS011;381;48.770;9.188;2022-08-01T17:49:06;3.80;;;3.53;;
795;SDS011;381;48.770;9.188;2022-08-01T17:54:08;3.70;;;3.37;;
795;SDS011;381;48.770;9.188;2022-08-01T17:59:12;4.30;;;4.00;;
795;SDS011;381;48.770;9.188;2022-08-01T18:04:14;3.90;;;3.70;;
795;SDS011;381;48.770;9.188;2022-08-01T18:09:16;2.73;;;2.63;;
795;SDS011;381;48.770;9.188;2022-08-01T18:14:20;3.93;;;3.73;;
795;SDS011;381;48.770;9.188;2022-08-01T18:19:22;3.87;;;3.67;;
795;SDS011;381;48.770;9.188;2022-08-01T18:24:24;3.80;;;3.60;;
795;SDS011;381;48.770;9.188;2022-08-01T18:29:27;3.90;;;3.70;;
795;SDS011;381;48.770;9.188;2022-08-01T18:34:29;4.17;;;3.87;;
795;SDS011;381;48.770;9.188;2022-08-01T18:39:32;4.27;;;3.87;;
795;SDS011;381;48.770;9.188;2022-08-01T18:44:35;4.37;;;4.17;;
795;SDS011;381;48.770;9.188;2022-08-01T18:49:38;3.33;;;3.23;;
795;SDS011;381;48.770;9.188;2022-08-01T18:54:40;2.63;;;2.40;;
795;SDS011;381;48.770;9.188;2022-08-01T18:59:43;5.73;;;3.47;;
795;SDS011;381;48.770;9.188;2022-08-01T19:04:45;3.63;;;3.47;;
795;SDS011;381;48.770;9.188;2022-08-01T19:09:47;3.80;;;3.60;;
795;SDS011;381;48.770;9.188;2022-08-01T19:14:51;3.10;;;3.00;;
795;SDS011;381;48.770;9.188;2022-08-01T19:19:54;4.03;;;3.83;;
795;SDS011;381;48.770;9.188;2022-08-01T19:24:58;3.70;;;3.50;;
795;SDS011;381;48.770;9.188;2022-08-01T19:30:02;3.50;;;3.40;;
795;SDS011;381;48.770;9.188;2022-08-01T19:35:06;4.07;;;3.77;;
795;SDS011;381;48.770;9.188;2022-08-01T19:40:11;3.70;;;3.50;;
795;SDS011;381;48.770;9.188;2022-08-01T19:45:15;4.53;;;4.23;;
795;SDS011;381;48.770;9.188;2022-08-01T19:50:17;4.30;;;4.00;;
795;SDS011;381;48.770;9.188;2022-08-01T19:55:19;4.40;;;4.00;;
795;SDS011;381;48.770;9.188;2022-08-01T20:00:24;3.57;;;3.37;;
795;SDS011;381;48.770;9.188;2022-08-01T20:05:27;4.20;;;4.00;;
795;SDS011;381;48.770;9.188;2022-08-01T20:10:29;4.30;;;4.10;;
795;SDS011;381;48.770;9.188;2022-08-01T20:15:34;4.60;;;4.40;;
795;SDS011;381;48.770;9.188;2022-08-01T20:20:36;3.90;;;3.70;;
795;SDS011;381;48.770;9.188;2022-08-01T20:25:38;4.93;;;4.57;;
795;SDS011;381;48.770;9.188;2022-08-01T20:30:44;3.90;;;3.70;;
795;SDS011;381;48.770;9.188;2022-08-01T20:35:47;5.50;;;3.50;;
795;SDS011;381;48.770;9.188;2022-08-01T20:40:51;3.90;;;3.70;;
795;SDS011;381;48.770;9.188;2022-08-01T20:45:55;4.30;;;4.00;;
795;SDS011;381;48.770;9.188;2022-08-01T20:50:58;4.50;;;4.20;;
795;SDS011;381;48.770;9.188;2022-08-01T20:56:19;4.30;;;4.10;;
795;SDS011;381;48.770;9.188;2022-08-01T21:01:29;4.37;;;4.13;;
795;SDS011;381;48.770;9.188;2022-08-01T21:06:35;4.57;;;4.20;;
795;SDS011;381;48.770;9.188;2022-08-01T21:11:42;5.00;;;4.53;;
795;SDS011;381;48.770;9.188;2022-08-01T21:16:56;4.70;;;4.30;;
795;SDS011;381;48.770;9.188;2022-08-01T21:22:01;7.00;;;4.60;;
795;SDS011;381;48.770;9.188;2022-08-01T21:27:05;4.83;;;4.53;;
795;SDS011;381;48.770;9.188;2022-08-01T21:32:09;5.43;;;4.83;;
795;SDS011;381;48.770;9.188;2022-08-01T21:37:13;4.53;;;4.33;;
795;SDS011;381;48.770;9.188;2022-08-01T21:42:16;4.40;;;4.10;;
795;SDS011;381;48.770;9.188;2022-08-01T21:47:20;4.40;;;4.13;;
795;SDS011;381;48.770;9.188;2022-08-01T21:52:23;5.10;;;4.57;;
795;SDS011;381;48.770;9.188;2022-08-01T21:57:30;5.03;;;4.57;;
795;SDS011;381;48.770;9.188;2022-08-01T22:02:43;4.90;;;4.50;;
795;SDS011;381;48.770;9.188;2022-08-01T22:07:53;4.37;;;4.17;;
795;SDS011;381;48.770;9.188;2022-08-01T22:12:59;4.90;;;4.70;;
795;SDS011;381;48.770;9.188;2022-08-01T22:18:02;5.20;;;5.00;;
795;SDS011;381;48.770;9.188;2022-08-01T22:23:05;4.80;;;4.40;;
795;SDS011;381;48.770;9.188;2022-08-01T22:28:08;4.57;;;4.37;;
795;SDS011;381;48.770;9.188;2022-08-01T22:33:12;4.10;;;3.90;;
795;SDS011;381;48.770;9.188;2022-08-01T22:38:15;4.63;;;4.43;;
795;SDS011;381;48.770;9.188;2022-08-01T22:43:25;4.47;;;4.27;;
795;SDS011;381;48.770;9.188;2022-08-01T22:48:34;5.50;;;5.20;;
795;SDS011;381;48.770;9.188;2022-08-01T22:53:44;5.20;;;4.90;;
795;SDS011;381;48.770;9.188;2022-08-01T22:58:53;4.57;;;4.37;;
795;SDS011;381;48.770;9.188;2022-08-01T23:04:02;4.30;;;4.10;;
795;SDS011;381;48.770;9.188;2022-08-01T23:09:06;4.40;;;4.20;;
795;SDS011;381;48.770;9.188;2022-08-01T23:14:09;4.83;;;4.43;;
795;SDS011;381;48.770;9.188;2022-08-01T23:19:13;4.20;;;4.10;;
795;SDS011;381;48.770;9.188;2022-08-01T23:24:16;6.73;;;6.33;;
795;SDS011;381;48.770;9.188;2022-08-01T23:29:19;4.80;;;4.60;;
795;SDS011;381;48.770;9.188;2022-08-01T23:34:25;4.40;;;4.10;;
795;SDS011;381;48.770;9.188;2022-08-01T23:39:27;4.50;;;4.20;;
795;SDS011;381;48.770;9.188;2022-08-01T23:44:29;4.07;;;3.97;;
795;SDS011;381;48.770;9.188;2022-08-01T23:49:33;4.03;;;3.83;;
795;SDS011;381;48.770;9.188;2022-08-01T23:54:36;4.70;;;4.50;;
795;SDS011;381;48.770;9.188;2022-08-01T23:59:38;4.50;;;4.20;;
